Mc Clellan Airfield
KMCC : now visible

Airfield :











YOU CAN JOIN US ON...

 
LOGIN :

Register | Disclaimer

   EN    FR    IT 

 









Legend :    VFR   Marginal VFR   IFR   Intensive IFR   Very Intensive IFR
Visi :
Ceiling :
>= 8 km
>= 3000ft
5 to 8 km
1000 to 3000 ft
1500m to 5 km
500 to 1000 ft
800 to 1500m
200 to 500 ft
< 800m
< 200 ft
Symbols :   Thunderstorms  Fog  Heavy snow  Heavy precipitations  Wind > 20 kt






- Airport Elevation : 77 ft


KMCC - Mc Clellan

CURRENT METAR :
  • 082035Z AUTO VRB04KT 5SM HZ CLR 33/13 A2988 RMK AO2

EXPIRED METARs :
  • 082015Z AUTO VRB04KT 3SM HZ CLR 32/13 A2989 RMK AO2
  • 081955Z AUTO VRB04KT 6SM HZ CLR 32/13 A2989 RMK AO2
  • 081935Z AUTO 22006KT 8SM CLR 31/13 A2990 RMK AO2
  • 081915Z AUTO VRB03KT 3SM HZ CLR 31/14 A2991 RMK AO2
  • 081855Z AUTO 00000KT 7SM CLR 29/14 A2991 RMK AO2
  • 081835Z AUTO VRB04KT 7SM CLR 28/14 A2992 RMK AO2
  • 081815Z AUTO 16004KT 9SM CLR 28/14 A2992 RMK AO2
  • 081755Z AUTO VRB05KT 10SM CLR 27/14 A2993 RMK AO2

TAF KMCC
Valid from the 08 at 18:00 until the 09 at 18:00 UTC


081733Z 0818/0918 20006KT P6SM SKC
FM090700 15005KT P6SM SKC
KZOA FIR / North America



MET'MAP, your aeronautical weather chart ! - Copyright ORBIFLY December 2007 - Disclaimer

ORBIFLY MET'MAP TEAM :

Programming & Development : Alexandra Zaïnal
Concept & original design : Baudouin d'Aumeries
Assistance for programming : Marc-Olivier Méhu
Technical & hardware support : Manuel Goepfert

Contact : metmap@orbifly.com




SOURCES & CREDITS :

   NOAA       Earth
Advisory